createdAt,value
2023-02-11T00:01:21.890Z,46.17
2023-02-11T00:03:50.055Z,45.60
2023-02-11T00:06:19.676Z,37.90
2023-02-11T00:08:48.040Z,32.17
2023-02-11T00:11:19.937Z,35.53
2023-02-11T00:13:48.517Z,32.08
2023-02-11T00:16:18.078Z,45.03
2023-02-11T00:18:47.025Z,34.22
2023-02-11T00:21:17.353Z,36.38
2023-02-11T00:23:45.986Z,41.88
2023-02-11T00:26:14.566Z,38.70
2023-02-11T00:28:45.920Z,40.42
2023-02-11T00:31:15.495Z,39.30
2023-02-11T00:33:44.692Z,41.33
2023-02-11T00:36:16.812Z,37.03
2023-02-11T00:38:50.013Z,35.25
2023-02-11T00:41:19.232Z,35.70
2023-02-11T00:43:49.629Z,34.55
2023-02-11T00:46:20.856Z,35.95
2023-02-11T00:48:49.370Z,39.58
2023-02-11T00:51:17.325Z,35.60
2023-02-11T00:53:45.691Z,34.72
2023-02-11T00:56:14.065Z,50.05
2023-02-11T00:58:42.758Z,33.95
2023-02-11T01:01:13.351Z,37.88
2023-02-11T01:03:41.754Z,45.20
2023-02-11T01:06:10.674Z,31.75
2023-02-11T01:08:40.014Z,37.42
2023-02-11T01:11:14.602Z,34.92
2023-02-11T01:13:43.537Z,36.70
2023-02-11T01:16:13.129Z,33.63
2023-02-11T01:18:41.969Z,32.75
2023-02-11T01:21:11.149Z,38.30
2023-02-11T01:23:39.077Z,36.90
2023-02-11T01:26:07.109Z,33.33
2023-02-11T01:28:35.176Z,36.30
2023-02-11T01:31:04.088Z,37.63
2023-02-11T01:33:35.666Z,36.63
2023-02-11T01:36:04.442Z,36.42
2023-02-11T01:38:33.762Z,29.98
2023-02-11T01:41:04.583Z,37.08
2023-02-11T01:43:37.019Z,32.63
2023-02-11T01:46:24.690Z,42.35
2023-02-11T01:48:57.197Z,30.55
2023-02-11T01:51:28.669Z,34.78
2023-02-11T01:54:16.472Z,33.58
2023-02-11T01:57:07.302Z,34.83
2023-02-11T01:59:42.037Z,32.08
2023-02-11T02:02:13.976Z,33.92
2023-02-11T02:04:50.104Z,29.13
2023-02-11T02:07:26.140Z,39.78
2023-02-11T02:10:02.202Z,30.15
2023-02-11T02:12:30.548Z,29.73
2023-02-11T02:15:24.859Z,28.85
2023-02-11T02:18:01.933Z,32.83
2023-02-11T02:21:12.429Z,33.55
2023-02-11T02:23:52.832Z,36.88
2023-02-11T02:27:01.477Z,34.30
2023-02-11T02:30:02.018Z,36.78
2023-02-11T02:33:21.424Z,36.55
2023-02-11T02:35:57.996Z,25.30
2023-02-11T02:38:30.550Z,35.10
2023-02-11T02:41:03.445Z,32.97
2023-02-11T02:43:32.656Z,38.42
2023-02-11T02:46:16.132Z,34.05
2023-02-11T02:48:45.686Z,32.88
2023-02-11T02:51:35.217Z,36.38
2023-02-11T02:54:29.474Z,34.38
2023-02-11T02:57:06.408Z,31.33
2023-02-11T02:59:49.969Z,31.23
2023-02-11T03:02:26.012Z,30.27
2023-02-11T03:05:01.300Z,31.67
2023-02-11T03:07:39.105Z,28.30
2023-02-11T03:10:10.489Z,28.90
2023-02-11T03:12:39.808Z,34.92
2023-02-11T03:15:09.462Z,36.20
2023-02-11T03:17:40.446Z,32.05
2023-02-11T03:20:14.441Z,34.75
2023-02-11T03:22:49.441Z,35.22
2023-02-11T03:25:18.205Z,25.42
2023-02-11T03:27:53.344Z,30.60
2023-02-11T03:30:25.998Z,34.67
2023-02-11T03:32:59.286Z,36.65
2023-02-11T03:35:32.972Z,30.38
2023-02-11T03:38:07.143Z,40.55
2023-02-11T03:40:39.442Z,35.22
2023-02-11T03:43:11.327Z,32.03
2023-02-11T03:45:40.701Z,30.02
2023-02-11T03:48:15.700Z,28.30
2023-02-11T03:50:46.760Z,38.20
2023-02-11T03:53:17.309Z,32.50
2023-02-11T03:55:47.430Z,30.80
2023-02-11T03:58:15.527Z,35.33
2023-02-11T04:00:44.818Z,34.10
2023-02-11T04:03:14.060Z,33.10
2023-02-11T04:05:42.355Z,34.97
2023-02-11T04:08:10.875Z,35.28
2023-02-11T04:10:40.508Z,34.90
2023-02-11T04:13:08.961Z,31.67
2023-02-11T04:15:37.868Z,33.83
2023-02-11T04:18:05.914Z,29.77
2023-02-11T04:20:33.880Z,42.53
2023-02-11T04:23:02.303Z,39.00
2023-02-11T04:25:30.637Z,33.15
2023-02-11T04:28:00.461Z,40.17
2023-02-11T04:30:28.594Z,35.80
2023-02-11T04:32:56.641Z,33.85
2023-02-11T04:35:24.700Z,34.83
2023-02-11T04:37:52.795Z,35.08
2023-02-11T04:40:21.426Z,37.28
2023-02-11T04:42:49.334Z,34.33
2023-02-11T04:45:19.364Z,44.20
2023-02-11T04:47:47.605Z,40.38
2023-02-11T04:50:16.018Z,35.38
2023-02-11T04:52:44.102Z,34.60
2023-02-11T04:55:13.249Z,37.08
2023-02-11T04:57:41.248Z,36.47
2023-02-11T05:00:11.381Z,44.28
2023-02-11T05:02:41.220Z,40.47
2023-02-11T05:05:09.616Z,37.72
2023-02-11T05:07:38.173Z,37.90
2023-02-11T05:10:06.411Z,43.83
2023-02-11T05:12:34.388Z,39.60
2023-02-11T05:15:02.509Z,41.03
2023-02-11T05:17:30.618Z,42.30
2023-02-11T05:20:00.291Z,47.80
2023-02-11T05:22:28.417Z,47.72
2023-02-11T05:24:56.621Z,46.53
2023-02-11T05:27:24.743Z,46.65
2023-02-11T05:29:52.756Z,45.40
2023-02-11T05:32:20.832Z,40.00
2023-02-11T05:34:48.878Z,42.45
2023-02-11T05:37:18.702Z,41.78
2023-02-11T05:39:46.880Z,42.92
2023-02-11T05:42:15.489Z,44.83
2023-02-11T05:44:43.949Z,53.17
2023-02-11T05:47:12.040Z,47.85
2023-02-11T05:49:40.250Z,45.35
2023-02-11T05:52:08.547Z,41.08
2023-02-11T05:54:38.506Z,43.08
2023-02-11T05:57:06.604Z,53.05
2023-02-11T05:59:34.685Z,47.65
2023-02-11T06:02:03.487Z,46.85
2023-02-11T06:04:31.517Z,43.50
2023-02-11T06:06:59.925Z,48.30
2023-02-11T06:09:28.498Z,53.00
2023-02-11T06:11:58.103Z,50.97
2023-02-11T06:14:26.591Z,49.83
2023-02-11T06:16:55.002Z,45.80
2023-02-11T06:19:23.167Z,62.83
2023-02-11T06:21:51.413Z,53.28
2023-02-11T06:24:38.347Z,61.47
2023-02-11T06:27:09.678Z,52.75
2023-02-11T06:29:37.820Z,49.00
2023-02-11T06:32:06.211Z,59.35
2023-02-11T06:34:34.364Z,60.97
2023-02-11T06:37:02.915Z,52.95
2023-02-11T06:39:31.193Z,55.13
2023-02-11T06:42:00.112Z,53.28
2023-02-11T06:44:30.015Z,54.15
2023-02-11T06:46:58.077Z,62.13
2023-02-11T06:49:26.233Z,52.80
2023-02-11T06:51:54.385Z,64.30
2023-02-11T06:54:22.646Z,70.68
2023-02-11T06:56:51.089Z,66.43
2023-02-11T06:59:20.643Z,63.42
2023-02-11T07:01:50.562Z,62.78
2023-02-11T07:04:19.674Z,67.18
2023-02-11T07:06:47.883Z,66.30
2023-02-11T07:09:16.196Z,61.47
2023-02-11T07:11:44.328Z,73.38
2023-02-11T07:14:13.462Z,72.22
2023-02-11T07:16:41.795Z,60.95
2023-02-11T07:19:12.445Z,68.80
2023-02-11T07:21:40.954Z,64.07
2023-02-11T07:24:11.283Z,76.05
2023-02-11T07:26:40.335Z,73.18
2023-02-11T07:29:08.595Z,72.32
2023-02-11T07:31:36.980Z,80.72
2023-02-11T07:34:05.463Z,71.43
2023-02-11T07:36:35.584Z,75.30
2023-02-11T07:39:04.402Z,78.60
2023-02-11T07:41:32.539Z,70.20
2023-02-11T07:44:00.758Z,68.35
2023-02-11T07:46:29.388Z,70.75
2023-02-11T07:48:57.820Z,81.43
2023-02-11T07:51:27.891Z,82.40
2023-02-11T07:53:59.854Z,90.05
2023-02-11T07:56:29.925Z,69.10
2023-02-11T07:59:03.792Z,64.05
2023-02-11T08:01:32.531Z,74.70
2023-02-11T08:04:02.239Z,63.72
2023-02-11T08:06:32.776Z,73.85
2023-02-11T08:09:09.019Z,72.32
2023-02-11T08:11:37.616Z,57.20
2023-02-11T08:14:06.033Z,77.25
2023-02-11T08:16:36.559Z,69.10
2023-02-11T08:19:06.921Z,72.05
2023-02-11T08:21:35.636Z,66.30
2023-02-11T08:24:05.872Z,64.35
2023-02-11T08:26:35.245Z,58.00
2023-02-11T08:29:07.718Z,74.20
2023-02-11T08:31:38.299Z,74.15
2023-02-11T08:34:06.762Z,60.60
2023-02-11T08:36:37.830Z,59.22
2023-02-11T08:39:18.582Z,56.25
2023-02-11T08:41:49.653Z,61.92
2023-02-11T08:44:18.531Z,61.40
2023-02-11T08:46:47.399Z,56.75
2023-02-11T08:49:16.130Z,62.50
2023-02-11T08:51:44.743Z,58.42
2023-02-11T08:54:15.815Z,56.58
2023-02-11T08:56:44.969Z,58.80
2023-02-11T08:59:17.910Z,51.92
2023-02-11T09:01:47.354Z,61.72
2023-02-11T09:04:16.031Z,62.95
2023-02-11T09:06:44.434Z,57.00
2023-02-11T09:09:15.196Z,54.53
2023-02-11T09:11:45.175Z,52.35
2023-02-11T09:14:19.686Z,52.40
2023-02-11T09:16:49.005Z,53.03
2023-02-11T09:19:18.039Z,45.92
2023-02-11T09:21:46.768Z,50.40
2023-02-11T09:24:16.503Z,55.72
2023-02-11T09:26:45.166Z,58.45
2023-02-11T09:29:14.010Z,55.65
2023-02-11T09:31:42.769Z,54.17
2023-02-11T09:34:12.210Z,54.65
2023-02-11T09:36:41.760Z,52.20
2023-02-11T09:39:13.858Z,65.13
2023-02-11T09:42:12.656Z,55.63
2023-02-11T09:44:46.632Z,59.03
2023-02-11T09:47:27.995Z,74.15
2023-02-11T09:50:01.252Z,58.72
2023-02-11T09:52:38.097Z,55.95
2023-02-11T09:55:18.746Z,64.90
2023-02-11T09:57:47.341Z,64.82
2023-02-11T10:00:27.405Z,60.63
2023-02-11T10:03:07.769Z,67.05
2023-02-11T10:05:50.464Z,80.13
2023-02-11T10:08:28.737Z,70.00
2023-02-11T10:11:02.849Z,68.72
2023-02-11T10:13:51.168Z,55.42
2023-02-11T10:16:49.922Z,64.43
2023-02-11T10:19:35.903Z,63.25
2023-02-11T10:22:11.962Z,57.03
2023-02-11T10:24:43.810Z,58.67
2023-02-11T10:27:18.572Z,61.38
2023-02-11T10:29:53.887Z,76.68
2023-02-11T10:32:35.099Z,70.65
2023-02-11T10:35:12.684Z,57.03
2023-02-11T10:37:42.961Z,51.85
2023-02-11T10:40:16.048Z,54.72
2023-02-11T10:42:48.914Z,63.42
2023-02-11T10:45:23.562Z,61.10
2023-02-11T10:47:55.291Z,55.95
2023-02-11T10:50:27.136Z,64.38
2023-02-11T10:53:13.331Z,61.17
2023-02-11T10:55:53.687Z,60.17
2023-02-11T10:58:29.197Z,62.13
2023-02-11T11:01:00.388Z,60.00
2023-02-11T11:03:35.681Z,59.60
2023-02-11T11:06:06.987Z,63.78
2023-02-11T11:08:43.036Z,57.83
2023-02-11T11:11:13.505Z,58.50
2023-02-11T11:13:43.546Z,54.08
2023-02-11T11:16:22.731Z,52.83
2023-02-11T11:18:54.611Z,47.70
2023-02-11T11:21:28.042Z,58.33
2023-02-11T11:23:59.174Z,54.50
2023-02-11T11:26:30.105Z,52.42
2023-02-11T11:29:02.706Z,51.85
2023-02-11T11:31:34.688Z,56.55
2023-02-11T11:34:22.575Z,60.33
2023-02-11T11:36:51.782Z,50.05
2023-02-11T11:39:24.533Z,54.13
2023-02-11T11:41:55.905Z,57.63
2023-02-11T11:44:30.944Z,65.32
2023-02-11T11:47:26.187Z,53.63
2023-02-11T11:50:13.246Z,48.25
2023-02-11T11:52:45.700Z,54.97
2023-02-11T11:55:19.879Z,52.60
2023-02-11T11:57:50.068Z,48.85
2023-02-11T12:00:21.223Z,47.65
2023-02-11T12:03:34.434Z,46.15
2023-02-11T12:06:18.497Z,46.42
2023-02-11T12:08:59.482Z,46.50
2023-02-11T12:11:36.484Z,50.38
2023-02-11T12:14:21.611Z,54.22
2023-02-11T12:16:58.515Z,48.50
2023-02-11T12:20:01.057Z,54.33
2023-02-11T12:22:46.439Z,45.22
2023-02-11T12:25:26.271Z,53.10
2023-02-11T12:28:01.912Z,49.47
2023-02-11T12:30:44.610Z,55.67
2023-02-11T12:33:23.742Z,51.10
2023-02-11T12:36:01.220Z,55.67
2023-02-11T12:38:47.994Z,45.50
2023-02-11T12:41:42.084Z,53.50
2023-02-11T12:44:24.674Z,50.20
2023-02-11T12:47:03.686Z,44.45
2023-02-11T12:49:54.596Z,54.90
2023-02-11T12:52:35.892Z,43.70
2023-02-11T12:55:18.239Z,47.30
2023-02-11T12:57:49.685Z,52.53
2023-02-11T13:00:20.683Z,46.05
2023-02-11T13:02:57.729Z,54.75
2023-02-11T13:05:30.234Z,62.92
2023-02-11T13:08:06.238Z,50.03
2023-02-11T13:10:38.763Z,44.65
2023-02-11T13:13:19.600Z,51.53
2023-02-11T13:15:55.191Z,60.90
2023-02-11T13:18:37.280Z,55.58
2023-02-11T13:21:23.493Z,48.08
2023-02-11T13:24:00.097Z,54.38
2023-02-11T13:26:37.339Z,50.58
2023-02-11T13:29:17.401Z,52.90
2023-02-11T13:31:54.612Z,56.53
2023-02-11T13:34:47.490Z,54.35
2023-02-11T13:37:23.173Z,53.20
2023-02-11T13:39:58.385Z,49.83
2023-02-11T13:42:29.027Z,57.70
2023-02-11T13:44:57.930Z,49.00
2023-02-11T13:47:31.989Z,61.90
2023-02-11T13:50:01.656Z,55.85
2023-02-11T13:52:32.765Z,49.78
2023-02-11T13:55:11.063Z,50.42
2023-02-11T13:57:42.600Z,49.88
2023-02-11T14:00:50.199Z,48.33
2023-02-11T14:03:46.328Z,56.88
2023-02-11T14:06:41.523Z,63.80
2023-02-11T14:09:39.239Z,62.17
2023-02-11T14:12:36.233Z,59.22
2023-02-11T14:15:42.544Z,61.45
2023-02-11T14:18:37.975Z,58.53
2023-02-11T14:21:13.611Z,62.20
2023-02-11T14:23:43.726Z,60.72
2023-02-11T14:26:30.094Z,56.00
2023-02-11T14:29:04.997Z,56.45
2023-02-11T14:31:43.198Z,63.83
2023-02-11T14:34:40.877Z,63.28
2023-02-11T14:37:30.584Z,61.80
2023-02-11T14:40:07.634Z,55.97
2023-02-11T14:42:39.038Z,52.42
2023-02-11T14:45:11.180Z,52.72
2023-02-11T14:47:46.587Z,59.20
2023-02-11T14:50:19.408Z,63.00
2023-02-11T14:52:48.651Z,67.53
2023-02-11T14:55:29.379Z,60.20
2023-02-11T14:58:13.996Z,54.38
2023-02-11T15:00:51.421Z,51.70
2023-02-11T15:03:36.717Z,51.78
2023-02-11T15:06:08.425Z,52.47
2023-02-11T15:08:39.823Z,56.92
2023-02-11T15:11:13.493Z,49.67
2023-02-11T15:13:48.312Z,53.80
2023-02-11T15:16:19.583Z,57.00
2023-02-11T15:18:54.365Z,57.00
2023-02-11T15:21:25.296Z,51.75
2023-02-11T15:23:58.991Z,58.75
2023-02-11T15:26:27.773Z,60.90
2023-02-11T15:28:56.396Z,63.88
2023-02-11T15:31:27.113Z,57.47
2023-02-11T15:33:57.077Z,53.50
2023-02-11T15:36:33.617Z,50.65
2023-02-11T15:39:20.210Z,53.33
2023-02-11T15:41:48.959Z,55.67
2023-02-11T15:44:31.688Z,66.53
2023-02-11T15:47:00.697Z,57.50
2023-02-11T15:49:31.310Z,56.13
2023-02-11T15:52:00.122Z,53.65
2023-02-11T15:54:31.874Z,56.63
2023-02-11T15:57:06.478Z,63.35
2023-02-11T15:59:39.063Z,60.03
2023-02-11T16:02:10.039Z,56.08
2023-02-11T16:04:40.208Z,57.30
2023-02-11T16:07:37.396Z,61.00
2023-02-11T16:10:06.373Z,52.60
2023-02-11T16:12:34.990Z,54.72
2023-02-11T16:15:31.493Z,55.53
2023-02-11T16:18:00.034Z,55.75
2023-02-11T16:20:29.824Z,51.85
2023-02-11T16:22:58.330Z,59.13
2023-02-11T16:25:26.971Z,53.88
2023-02-11T16:27:55.862Z,63.80
2023-02-11T16:30:30.835Z,48.70
2023-02-11T16:32:58.948Z,61.20
2023-02-11T16:35:27.522Z,54.95
2023-02-11T16:37:57.764Z,52.22
2023-02-11T16:40:26.205Z,51.15
2023-02-11T16:42:54.601Z,55.03
2023-02-11T16:45:23.160Z,57.05
2023-02-11T16:47:51.351Z,61.53
2023-02-11T16:50:25.071Z,52.10
2023-02-11T16:52:54.189Z,48.03
2023-02-11T16:55:24.086Z,47.20
2023-02-11T16:57:52.806Z,54.00
2023-02-11T17:00:21.977Z,45.67
2023-02-11T17:02:50.136Z,45.03
2023-02-11T17:05:23.070Z,43.72
2023-02-11T17:07:51.493Z,45.33
2023-02-11T17:10:21.900Z,40.40
2023-02-11T17:12:53.470Z,45.10
2023-02-11T17:15:21.910Z,37.50
2023-02-11T17:17:50.361Z,38.67
2023-02-11T17:20:19.170Z,36.30
2023-02-11T17:22:48.046Z,33.40
2023-02-11T17:25:16.295Z,33.67
2023-02-11T17:27:44.286Z,38.95
2023-02-11T17:30:15.347Z,39.47
2023-02-11T17:32:43.737Z,30.38
2023-02-11T17:35:12.832Z,34.00
2023-02-11T17:37:40.996Z,40.35
2023-02-11T17:40:10.606Z,32.45
2023-02-11T17:42:40.215Z,30.75
2023-02-11T17:49:35.565Z,33.10
2023-02-11T17:52:04.334Z,33.75
2023-02-11T17:54:33.378Z,29.13
2023-02-11T17:57:02.324Z,28.85
2023-02-11T17:59:35.824Z,26.92
2023-02-11T18:02:04.122Z,29.38
2023-02-11T18:04:33.984Z,28.67
2023-02-11T18:07:02.480Z,27.63
2023-02-11T18:09:30.415Z,29.42
2023-02-11T18:11:59.012Z,25.25
2023-02-11T18:14:27.178Z,30.05
2023-02-11T18:16:55.567Z,29.50
2023-02-11T18:19:23.972Z,29.35
2023-02-11T18:21:53.455Z,23.38
2023-02-11T18:24:32.621Z,23.35
2023-02-11T18:27:00.826Z,25.70
2023-02-11T18:29:28.984Z,19.73
2023-02-11T18:31:58.267Z,19.75
2023-02-11T18:34:26.861Z,21.52
2023-02-11T18:36:57.145Z,26.17
2023-02-11T18:39:26.669Z,21.70
2023-02-11T18:41:56.881Z,21.25
2023-02-11T18:44:24.969Z,20.60
2023-02-11T18:46:53.555Z,25.27
2023-02-11T18:49:21.896Z,20.52
2023-02-11T18:51:50.337Z,17.90
2023-02-11T18:54:20.040Z,16.02
2023-02-11T18:56:48.383Z,18.25
2023-02-11T18:59:16.592Z,16.55
2023-02-11T19:01:46.933Z,23.73
2023-02-11T19:04:19.713Z,18.20
2023-02-11T19:06:50.002Z,17.48
2023-02-11T19:09:21.126Z,15.43
2023-02-11T19:12:02.453Z,19.50
2023-02-11T19:14:33.591Z,19.60
2023-02-11T19:17:04.392Z,19.67
2023-02-11T19:19:34.807Z,23.15
2023-02-11T19:22:09.175Z,16.30
2023-02-11T19:24:40.152Z,20.05
2023-02-11T19:27:08.563Z,17.00
2023-02-11T19:29:36.655Z,21.92
2023-02-11T19:32:06.843Z,20.45
2023-02-11T19:34:41.090Z,15.88
2023-02-11T19:37:10.906Z,20.30
2023-02-11T19:39:43.796Z,17.85
2023-02-11T19:42:13.269Z,20.60
2023-02-11T19:44:41.328Z,19.80
2023-02-11T19:47:10.401Z,23.80
2023-02-11T19:49:38.426Z,25.90
2023-02-11T19:52:06.557Z,25.17
2023-02-11T19:54:34.898Z,23.55
2023-02-11T19:57:04.798Z,24.38
2023-02-11T19:59:32.926Z,25.95
2023-02-11T20:02:01.783Z,23.75
2023-02-11T20:04:32.226Z,26.20
2023-02-11T20:07:00.742Z,27.85
2023-02-11T20:09:31.230Z,26.42
2023-02-11T20:12:00.113Z,31.48
2023-02-11T20:14:29.577Z,26.90
2023-02-11T20:16:57.906Z,32.85
2023-02-11T20:19:26.989Z,31.02
2023-02-11T20:21:56.242Z,27.90
2023-02-11T20:24:26.976Z,32.05
2023-02-11T20:26:56.344Z,29.60
2023-02-11T20:29:26.168Z,30.65
2023-02-11T20:31:55.983Z,32.15
2023-02-11T20:34:25.424Z,30.05
2023-02-11T20:36:54.222Z,35.72
2023-02-11T20:39:23.666Z,36.45
2023-02-11T20:41:52.484Z,43.50
2023-02-11T20:44:22.850Z,34.38
2023-02-11T20:46:54.059Z,28.90
2023-02-11T20:49:27.156Z,39.33
2023-02-11T20:51:56.895Z,34.42
2023-02-11T20:54:26.551Z,37.10
2023-02-11T20:56:57.030Z,35.30
2023-02-11T20:59:26.601Z,33.42
2023-02-11T21:01:57.414Z,36.20
2023-02-11T21:04:28.433Z,33.95
2023-02-11T21:06:58.701Z,33.80
2023-02-11T21:09:29.123Z,31.58
2023-02-11T21:11:57.291Z,41.90
2023-02-11T21:14:27.175Z,37.38
2023-02-11T21:16:55.641Z,37.45
2023-02-11T21:19:23.761Z,33.42
2023-02-11T21:21:55.231Z,36.53
2023-02-11T21:24:23.834Z,33.05
2023-02-11T21:26:51.882Z,34.95
2023-02-11T21:29:19.963Z,28.60
2023-02-11T21:31:48.269Z,29.52
2023-02-11T21:34:16.924Z,36.35
2023-02-11T21:36:45.878Z,27.80
2023-02-11T21:39:15.283Z,34.13
2023-02-11T21:41:43.572Z,32.88
2023-02-11T21:44:11.744Z,30.65
2023-02-11T21:46:40.030Z,30.00
2023-02-11T21:49:08.131Z,42.90
2023-02-11T21:51:36.429Z,34.30
2023-02-11T21:54:05.197Z,31.13
2023-02-11T21:56:35.528Z,34.25
2023-02-11T21:59:04.464Z,30.73
2023-02-11T22:01:35.288Z,28.20
2023-02-11T22:04:03.942Z,24.70
2023-02-11T22:06:35.227Z,23.88
2023-02-11T22:09:05.608Z,25.88
2023-02-11T22:11:35.280Z,24.45
2023-02-11T22:14:03.572Z,22.55
2023-02-11T22:16:32.368Z,23.70
2023-02-11T22:19:02.417Z,20.08
2023-02-11T22:21:30.929Z,23.50
2023-02-11T22:23:59.027Z,23.20
2023-02-11T22:26:28.332Z,23.98
2023-02-11T22:28:57.663Z,24.17
2023-02-11T22:31:28.003Z,24.38
2023-02-11T22:33:57.287Z,24.48
2023-02-11T22:36:26.829Z,29.65
2023-02-11T22:38:55.583Z,28.00
2023-02-11T22:41:24.080Z,25.80
2023-02-11T22:43:52.061Z,28.95
2023-02-11T22:46:22.163Z,26.23
2023-02-11T22:48:50.569Z,27.48
2023-02-11T22:51:21.044Z,26.92
2023-02-11T22:53:53.236Z,25.88
2023-02-11T22:56:22.534Z,28.58
2023-02-11T22:58:52.174Z,24.50
2023-02-11T23:01:21.885Z,31.35
2023-02-11T23:03:50.309Z,27.15
2023-02-11T23:06:18.773Z,27.17
2023-02-11T23:08:48.193Z,32.17
2023-02-11T23:11:20.468Z,31.35
2023-02-11T23:13:50.106Z,30.33
2023-02-11T23:16:22.657Z,29.88
2023-02-11T23:18:51.863Z,29.38
2023-02-11T23:21:22.201Z,32.92
2023-02-11T23:23:55.500Z,30.55
2023-02-11T23:26:23.682Z,25.63
2023-02-11T23:28:52.210Z,34.60
2023-02-11T23:31:26.833Z,28.67
2023-02-11T23:33:55.552Z,39.63
2023-02-11T23:36:24.446Z,33.72
2023-02-11T23:38:52.738Z,35.08
2023-02-11T23:41:21.623Z,40.35
2023-02-11T23:43:51.593Z,40.17
2023-02-11T23:46:22.097Z,43.05
2023-02-11T23:48:50.970Z,37.50
2023-02-11T23:51:20.113Z,44.95
2023-02-11T23:53:49.335Z,48.13
2023-02-11T23:56:20.067Z,42.33
2023-02-11T23:58:49.711Z,37.25
